sensor_id;sensor_type;location;lat;lon;timestamp;temperature;humidity
19941;DHT22;10132;50.864;5.176;2023-04-25T00:00:56;8.80;99.90
19941;DHT22;10132;50.864;5.176;2023-04-25T00:02:59;8.90;99.90
19941;DHT22;10132;50.864;5.176;2023-04-25T00:05:07;8.90;99.90
19941;DHT22;10132;50.864;5.176;2023-04-25T00:07:11;8.90;99.90
19941;DHT22;10132;50.864;5.176;2023-04-25T00:09:18;8.80;99.90
19941;DHT22;10132;50.864;5.176;2023-04-25T00:11:25;8.70;99.90
19941;DHT22;10132;50.864;5.176;2023-04-25T00:13:32;8.70;99.90
19941;DHT22;10132;50.864;5.176;2023-04-25T00:15:36;8.80;99.90
19941;DHT22;10132;50.864;5.176;2023-04-25T00:17:40;8.80;99.90
19941;DHT22;10132;50.864;5.176;2023-04-25T00:19:56;8.80;99.90
19941;DHT22;10132;50.864;5.176;2023-04-25T00:22:21;8.90;99.90
19941;DHT22;10132;50.864;5.176;2023-04-25T00:24:29;8.90;99.90
19941;DHT22;10132;50.864;5.176;2023-04-25T00:26:45;8.90;99.90
19941;DHT22;10132;50.864;5.176;2023-04-25T00:28:54;8.90;99.90
19941;DHT22;10132;50.864;5.176;2023-04-25T00:30:58;8.80;99.90
19941;DHT22;10132;50.864;5.176;2023-04-25T00:33:02;8.80;99.90
19941;DHT22;10132;50.864;5.176;2023-04-25T00:35:09;8.90;99.90
19941;DHT22;10132;50.864;5.176;2023-04-25T00:37:17;8.90;99.90
19941;DHT22;10132;50.864;5.176;2023-04-25T00:41:45;8.80;99.90
19941;DHT22;10132;50.864;5.176;2023-04-25T00:44:03;8.80;99.90
19941;DHT22;10132;50.864;5.176;2023-04-25T00:46:09;8.80;99.90
19941;DHT22;10132;50.864;5.176;2023-04-25T00:48:14;8.70;99.90
19941;DHT22;10132;50.864;5.176;2023-04-25T00:50:18;8.70;99.90
19941;DHT22;10132;50.864;5.176;2023-04-25T00:52:30;8.80;99.90
19941;DHT22;10132;50.864;5.176;2023-04-25T00:54:38;8.80;99.90
19941;DHT22;10132;50.864;5.176;2023-04-25T00:56:46;8.80;99.90
19941;DHT22;10132;50.864;5.176;2023-04-25T00:59:03;8.80;99.90
19941;DHT22;10132;50.864;5.176;2023-04-25T01:01:15;8.90;99.90
19941;DHT22;10132;50.864;5.176;2023-04-25T01:03:19;8.90;99.90
19941;DHT22;10132;50.864;5.176;2023-04-25T01:05:22;8.90;99.90
19941;DHT22;10132;50.864;5.176;2023-04-25T01:07:29;8.90;99.90
19941;DHT22;10132;50.864;5.176;2023-04-25T01:09:36;8.80;99.90
19941;DHT22;10132;50.864;5.176;2023-04-25T01:11:40;8.80;99.90
19941;DHT22;10132;50.864;5.176;2023-04-25T01:13:43;8.70;99.90
19941;DHT22;10132;50.864;5.176;2023-04-25T01:15:49;8.70;99.90
19941;DHT22;10132;50.864;5.176;2023-04-25T01:17:57;8.60;99.90
19941;DHT22;10132;50.864;5.176;2023-04-25T01:20:10;8.60;99.90
19941;DHT22;10132;50.864;5.176;2023-04-25T01:22:20;8.60;99.90
19941;DHT22;10132;50.864;5.176;2023-04-25T01:24:28;8.60;99.90
19941;DHT22;10132;50.864;5.176;2023-04-25T01:26:33;8.60;99.90
19941;DHT22;10132;50.864;5.176;2023-04-25T01:28:38;8.50;99.90
19941;DHT22;10132;50.864;5.176;2023-04-25T01:30:51;8.50;99.90
19941;DHT22;10132;50.864;5.176;2023-04-25T01:32:56;8.40;99.90
19941;DHT22;10132;50.864;5.176;2023-04-25T01:35:08;8.30;99.90
19941;DHT22;10132;50.864;5.176;2023-04-25T01:37:23;8.30;99.90
19941;DHT22;10132;50.864;5.176;2023-04-25T01:39:28;8.30;99.90
19941;DHT22;10132;50.864;5.176;2023-04-25T01:41:37;8.20;99.90
19941;DHT22;10132;50.864;5.176;2023-04-25T01:43:42;8.20;99.90
19941;DHT22;10132;50.864;5.176;2023-04-25T01:45:50;8.20;99.90
19941;DHT22;10132;50.864;5.176;2023-04-25T01:47:53;8.20;99.90
19941;DHT22;10132;50.864;5.176;2023-04-25T01:50:08;8.30;99.90
19941;DHT22;10132;50.864;5.176;2023-04-25T01:52:11;8.30;99.90
19941;DHT22;10132;50.864;5.176;2023-04-25T01:54:19;8.30;99.90
19941;DHT22;10132;50.864;5.176;2023-04-25T01:56:24;8.30;99.90
19941;DHT22;10132;50.864;5.176;2023-04-25T01:58:27;8.30;99.90
19941;DHT22;10132;50.864;5.176;2023-04-25T02:00:35;8.30;99.90
19941;DHT22;10132;50.864;5.176;2023-04-25T02:02:40;8.20;99.90
19941;DHT22;10132;50.864;5.176;2023-04-25T02:04:47;8.30;99.90
19941;DHT22;10132;50.864;5.176;2023-04-25T02:06:49;8.20;99.90
19941;DHT22;10132;50.864;5.176;2023-04-25T02:08:52;8.20;99.90
19941;DHT22;10132;50.864;5.176;2023-04-25T02:10:56;8.20;99.90
19941;DHT22;10132;50.864;5.176;2023-04-25T02:13:02;8.30;99.90
19941;DHT22;10132;50.864;5.176;2023-04-25T02:15:07;8.20;99.90
19941;DHT22;10132;50.864;5.176;2023-04-25T02:17:10;8.20;99.90
19941;DHT22;10132;50.864;5.176;2023-04-25T02:19:13;8.20;99.90
19941;DHT22;10132;50.864;5.176;2023-04-25T02:21:19;8.20;99.90
19941;DHT22;10132;50.864;5.176;2023-04-25T02:23:22;8.10;99.90
19941;DHT22;10132;50.864;5.176;2023-04-25T02:25:29;8.10;99.90
19941;DHT22;10132;50.864;5.176;2023-04-25T02:27:35;8.10;99.90
19941;DHT22;10132;50.864;5.176;2023-04-25T02:29:37;8.00;99.90
19941;DHT22;10132;50.864;5.176;2023-04-25T02:31:41;8.00;99.90
19941;DHT22;10132;50.864;5.176;2023-04-25T02:33:45;8.10;99.90
19941;DHT22;10132;50.864;5.176;2023-04-25T02:35:48;8.10;99.90
19941;DHT22;10132;50.864;5.176;2023-04-25T02:37:51;8.10;99.90
19941;DHT22;10132;50.864;5.176;2023-04-25T02:40:02;8.10;99.90
19941;DHT22;10132;50.864;5.176;2023-04-25T02:42:06;8.10;99.90
19941;DHT22;10132;50.864;5.176;2023-04-25T02:44:10;8.00;99.90
19941;DHT22;10132;50.864;5.176;2023-04-25T02:46:12;8.10;99.90
19941;DHT22;10132;50.864;5.176;2023-04-25T02:48:14;8.10;99.90
19941;DHT22;10132;50.864;5.176;2023-04-25T02:50:17;8.10;99.90
19941;DHT22;10132;50.864;5.176;2023-04-25T02:52:19;8.00;99.90
19941;DHT22;10132;50.864;5.176;2023-04-25T02:54:22;8.00;99.90
19941;DHT22;10132;50.864;5.176;2023-04-25T02:56:25;7.90;99.90
19941;DHT22;10132;50.864;5.176;2023-04-25T02:58:28;7.90;99.90
19941;DHT22;10132;50.864;5.176;2023-04-25T03:00:32;7.90;99.90
19941;DHT22;10132;50.864;5.176;2023-04-25T03:02:34;7.80;99.90
19941;DHT22;10132;50.864;5.176;2023-04-25T03:04:37;7.90;99.90
19941;DHT22;10132;50.864;5.176;2023-04-25T03:06:39;7.80;99.90
19941;DHT22;10132;50.864;5.176;2023-04-25T03:08:42;7.80;99.90
19941;DHT22;10132;50.864;5.176;2023-04-25T03:10:47;7.80;99.90
19941;DHT22;10132;50.864;5.176;2023-04-25T03:12:59;7.80;99.90
19941;DHT22;10132;50.864;5.176;2023-04-25T03:15:03;7.80;99.90
19941;DHT22;10132;50.864;5.176;2023-04-25T03:17:08;7.90;99.90
19941;DHT22;10132;50.864;5.176;2023-04-25T03:19:10;7.90;99.90
19941;DHT22;10132;50.864;5.176;2023-04-25T03:21:13;7.90;99.90
19941;DHT22;10132;50.864;5.176;2023-04-25T03:23:16;8.00;99.90
19941;DHT22;10132;50.864;5.176;2023-04-25T03:25:20;8.00;99.90
19941;DHT22;10132;50.864;5.176;2023-04-25T03:27:22;8.00;99.90
19941;DHT22;10132;50.864;5.176;2023-04-25T03:29:25;8.00;99.90
19941;DHT22;10132;50.864;5.176;2023-04-25T03:31:28;8.00;99.90
19941;DHT22;10132;50.864;5.176;2023-04-25T03:33:32;8.00;99.90
19941;DHT22;10132;50.864;5.176;2023-04-25T03:35:34;8.00;99.90
19941;DHT22;10132;50.864;5.176;2023-04-25T03:37:39;8.10;99.90
19941;DHT22;10132;50.864;5.176;2023-04-25T03:39:45;8.00;99.90
19941;DHT22;10132;50.864;5.176;2023-04-25T03:41:49;8.00;99.90
19941;DHT22;10132;50.864;5.176;2023-04-25T03:43:51;8.00;99.90
19941;DHT22;10132;50.864;5.176;2023-04-25T03:45:53;8.00;99.90
19941;DHT22;10132;50.864;5.176;2023-04-25T03:47:56;8.00;99.90
19941;DHT22;10132;50.864;5.176;2023-04-25T03:50:03;8.00;99.90
19941;DHT22;10132;50.864;5.176;2023-04-25T03:52:05;8.00;99.90
19941;DHT22;10132;50.864;5.176;2023-04-25T03:54:08;8.10;99.90
19941;DHT22;10132;50.864;5.176;2023-04-25T03:56:17;8.10;99.90
19941;DHT22;10132;50.864;5.176;2023-04-25T03:58:20;8.10;99.90
19941;DHT22;10132;50.864;5.176;2023-04-25T04:00:23;8.10;99.90
19941;DHT22;10132;50.864;5.176;2023-04-25T04:02:26;8.20;99.90
19941;DHT22;10132;50.864;5.176;2023-04-25T04:04:29;8.20;99.90
19941;DHT22;10132;50.864;5.176;2023-04-25T04:06:33;8.10;99.90
19941;DHT22;10132;50.864;5.176;2023-04-25T04:08:35;8.20;99.90
19941;DHT22;10132;50.864;5.176;2023-04-25T04:10:38;8.20;99.90
19941;DHT22;10132;50.864;5.176;2023-04-25T04:12:41;8.20;99.90
19941;DHT22;10132;50.864;5.176;2023-04-25T04:14:46;8.10;99.90
19941;DHT22;10132;50.864;5.176;2023-04-25T04:16:48;8.10;99.90
19941;DHT22;10132;50.864;5.176;2023-04-25T04:18:52;8.00;99.90
19941;DHT22;10132;50.864;5.176;2023-04-25T04:20:54;7.90;99.90
19941;DHT22;10132;50.864;5.176;2023-04-25T04:23:00;7.60;99.90
19941;DHT22;10132;50.864;5.176;2023-04-25T04:25:02;7.40;99.90
19941;DHT22;10132;50.864;5.176;2023-04-25T04:27:06;7.40;99.90
19941;DHT22;10132;50.864;5.176;2023-04-25T04:29:09;7.40;99.90
19941;DHT22;10132;50.864;5.176;2023-04-25T04:31:21;7.40;99.90
19941;DHT22;10132;50.864;5.176;2023-04-25T04:33:24;7.40;99.90
19941;DHT22;10132;50.864;5.176;2023-04-25T04:35:26;7.40;99.90
19941;DHT22;10132;50.864;5.176;2023-04-25T04:37:30;7.40;99.90
19941;DHT22;10132;50.864;5.176;2023-04-25T04:39:35;7.40;99.90
19941;DHT22;10132;50.864;5.176;2023-04-25T04:41:37;7.40;99.90
19941;DHT22;10132;50.864;5.176;2023-04-25T04:43:40;7.40;99.90
19941;DHT22;10132;50.864;5.176;2023-04-25T04:45:42;7.40;99.90
19941;DHT22;10132;50.864;5.176;2023-04-25T04:47:45;7.40;99.90
19941;DHT22;10132;50.864;5.176;2023-04-25T04:49:47;7.50;99.90
19941;DHT22;10132;50.864;5.176;2023-04-25T04:51:51;7.50;99.90
19941;DHT22;10132;50.864;5.176;2023-04-25T04:53:55;7.60;99.90
19941;DHT22;10132;50.864;5.176;2023-04-25T04:56:02;7.70;99.90
19941;DHT22;10132;50.864;5.176;2023-04-25T04:58:04;7.70;99.90
19941;DHT22;10132;50.864;5.176;2023-04-25T05:00:07;7.70;99.90
19941;DHT22;10132;50.864;5.176;2023-04-25T05:02:11;7.80;99.90
19941;DHT22;10132;50.864;5.176;2023-04-25T05:04:13;7.80;99.90
19941;DHT22;10132;50.864;5.176;2023-04-25T05:06:16;7.70;99.90
19941;DHT22;10132;50.864;5.176;2023-04-25T05:08:18;7.70;99.90
19941;DHT22;10132;50.864;5.176;2023-04-25T05:10:20;7.80;99.90
19941;DHT22;10132;50.864;5.176;2023-04-25T05:12:23;7.90;99.90
19941;DHT22;10132;50.864;5.176;2023-04-25T05:14:25;7.90;99.90
19941;DHT22;10132;50.864;5.176;2023-04-25T05:16:31;7.90;99.90
19941;DHT22;10132;50.864;5.176;2023-04-25T05:18:33;7.90;99.90
19941;DHT22;10132;50.864;5.176;2023-04-25T05:20:35;7.80;99.90
19941;DHT22;10132;50.864;5.176;2023-04-25T05:22:37;7.80;99.90
19941;DHT22;10132;50.864;5.176;2023-04-25T05:24:39;7.90;99.90
19941;DHT22;10132;50.864;5.176;2023-04-25T05:26:43;7.90;99.90
19941;DHT22;10132;50.864;5.176;2023-04-25T05:28:46;7.80;99.90
19941;DHT22;10132;50.864;5.176;2023-04-25T05:30:49;7.80;99.90
19941;DHT22;10132;50.864;5.176;2023-04-25T05:32:51;7.90;99.90
19941;DHT22;10132;50.864;5.176;2023-04-25T05:34:53;8.00;99.90
19941;DHT22;10132;50.864;5.176;2023-04-25T05:36:56;8.00;99.90
19941;DHT22;10132;50.864;5.176;2023-04-25T05:38:58;8.10;99.90
19941;DHT22;10132;50.864;5.176;2023-04-25T05:41:00;8.00;99.90
19941;DHT22;10132;50.864;5.176;2023-04-25T05:43:02;8.00;99.90
19941;DHT22;10132;50.864;5.176;2023-04-25T05:45:06;8.00;99.90
19941;DHT22;10132;50.864;5.176;2023-04-25T05:47:10;7.90;99.90
19941;DHT22;10132;50.864;5.176;2023-04-25T05:49:12;7.90;99.90
19941;DHT22;10132;50.864;5.176;2023-04-25T05:51:14;8.00;99.90
19941;DHT22;10132;50.864;5.176;2023-04-25T05:53:16;8.00;99.90
19941;DHT22;10132;50.864;5.176;2023-04-25T05:55:18;8.00;99.90
19941;DHT22;10132;50.864;5.176;2023-04-25T05:57:22;8.00;99.90
19941;DHT22;10132;50.864;5.176;2023-04-25T05:59:24;8.00;99.90
19941;DHT22;10132;50.864;5.176;2023-04-25T06:01:28;7.90;99.90
19941;DHT22;10132;50.864;5.176;2023-04-25T06:03:30;7.90;99.90
19941;DHT22;10132;50.864;5.176;2023-04-25T06:05:32;7.90;99.90
19941;DHT22;10132;50.864;5.176;2023-04-25T06:07:35;8.00;99.90
19941;DHT22;10132;50.864;5.176;2023-04-25T06:09:37;8.00;99.90
19941;DHT22;10132;50.864;5.176;2023-04-25T06:11:40;8.00;99.90
19941;DHT22;10132;50.864;5.176;2023-04-25T06:13:42;7.90;99.90
19941;DHT22;10132;50.864;5.176;2023-04-25T06:15:44;7.60;99.90
19941;DHT22;10132;50.864;5.176;2023-04-25T06:17:47;7.60;99.90
19941;DHT22;10132;50.864;5.176;2023-04-25T06:19:49;7.70;99.90
19941;DHT22;10132;50.864;5.176;2023-04-25T06:21:51;7.90;99.90
19941;DHT22;10132;50.864;5.176;2023-04-25T06:23:53;8.00;99.90
19941;DHT22;10132;50.864;5.176;2023-04-25T06:25:55;8.00;99.90
19941;DHT22;10132;50.864;5.176;2023-04-25T06:27:57;8.00;99.90
19941;DHT22;10132;50.864;5.176;2023-04-25T06:30:01;8.10;99.90
19941;DHT22;10132;50.864;5.176;2023-04-25T06:32:03;8.00;99.90
19941;DHT22;10132;50.864;5.176;2023-04-25T06:34:07;8.10;99.90
19941;DHT22;10132;50.864;5.176;2023-04-25T06:36:09;8.20;99.90
19941;DHT22;10132;50.864;5.176;2023-04-25T06:38:11;8.20;99.90
19941;DHT22;10132;50.864;5.176;2023-04-25T06:40:13;8.10;99.90
19941;DHT22;10132;50.864;5.176;2023-04-25T06:42:15;8.00;99.90
19941;DHT22;10132;50.864;5.176;2023-04-25T06:44:17;8.00;99.90
19941;DHT22;10132;50.864;5.176;2023-04-25T06:46:19;8.00;99.90
19941;DHT22;10132;50.864;5.176;2023-04-25T06:48:22;8.10;99.90
19941;DHT22;10132;50.864;5.176;2023-04-25T06:50:25;8.20;99.90
19941;DHT22;10132;50.864;5.176;2023-04-25T06:52:27;8.40;99.90
19941;DHT22;10132;50.864;5.176;2023-04-25T06:54:29;8.40;99.90
19941;DHT22;10132;50.864;5.176;2023-04-25T06:56:32;8.20;99.90
19941;DHT22;10132;50.864;5.176;2023-04-25T06:58:34;8.10;99.90
19941;DHT22;10132;50.864;5.176;2023-04-25T07:00:36;8.10;99.90
19941;DHT22;10132;50.864;5.176;2023-04-25T07:02:38;8.10;99.90
19941;DHT22;10132;50.864;5.176;2023-04-25T07:04:42;8.20;99.90
19941;DHT22;10132;50.864;5.176;2023-04-25T07:06:50;8.30;99.90
19941;DHT22;10132;50.864;5.176;2023-04-25T07:08:52;8.40;99.90
19941;DHT22;10132;50.864;5.176;2023-04-25T07:10:54;8.60;99.90
19941;DHT22;10132;50.864;5.176;2023-04-25T07:12:56;8.50;99.90
19941;DHT22;10132;50.864;5.176;2023-04-25T07:14:58;8.60;99.90
19941;DHT22;10132;50.864;5.176;2023-04-25T07:17:06;8.50;99.90
19941;DHT22;10132;50.864;5.176;2023-04-25T07:19:08;8.60;99.90
19941;DHT22;10132;50.864;5.176;2023-04-25T07:21:10;8.80;99.90
19941;DHT22;10132;50.864;5.176;2023-04-25T07:23:14;8.80;99.90
19941;DHT22;10132;50.864;5.176;2023-04-25T07:25:16;8.90;99.90
19941;DHT22;10132;50.864;5.176;2023-04-25T07:27:19;8.60;99.90
19941;DHT22;10132;50.864;5.176;2023-04-25T07:29:21;8.70;99.90
19941;DHT22;10132;50.864;5.176;2023-04-25T07:31:23;8.90;99.90
19941;DHT22;10132;50.864;5.176;2023-04-25T07:33:25;9.10;99.90
19941;DHT22;10132;50.864;5.176;2023-04-25T07:35:28;9.30;99.90
19941;DHT22;10132;50.864;5.176;2023-04-25T07:37:30;9.40;99.90
19941;DHT22;10132;50.864;5.176;2023-04-25T07:39:33;9.30;99.90
19941;DHT22;10132;50.864;5.176;2023-04-25T07:41:36;9.20;99.90
19941;DHT22;10132;50.864;5.176;2023-04-25T07:43:38;9.30;99.90
19941;DHT22;10132;50.864;5.176;2023-04-25T07:45:40;9.50;99.90
19941;DHT22;10132;50.864;5.176;2023-04-25T07:47:43;9.50;99.90
19941;DHT22;10132;50.864;5.176;2023-04-25T07:49:45;9.40;99.90
19941;DHT22;10132;50.864;5.176;2023-04-25T07:51:48;9.30;99.90
19941;DHT22;10132;50.864;5.176;2023-04-25T07:53:51;9.30;99.90
19941;DHT22;10132;50.864;5.176;2023-04-25T07:55:54;9.30;99.90
19941;DHT22;10132;50.864;5.176;2023-04-25T07:57:57;9.40;99.90
19941;DHT22;10132;50.864;5.176;2023-04-25T07:59:59;9.20;99.90
19941;DHT22;10132;50.864;5.176;2023-04-25T08:02:03;9.20;99.90
19941;DHT22;10132;50.864;5.176;2023-04-25T08:04:05;9.20;99.90
19941;DHT22;10132;50.864;5.176;2023-04-25T08:06:07;9.30;99.90
19941;DHT22;10132;50.864;5.176;2023-04-25T08:08:09;9.40;99.90
19941;DHT22;10132;50.864;5.176;2023-04-25T08:10:12;9.50;99.90
19941;DHT22;10132;50.864;5.176;2023-04-25T08:12:17;9.50;99.90
19941;DHT22;10132;50.864;5.176;2023-04-25T08:14:20;9.70;99.90
19941;DHT22;10132;50.864;5.176;2023-04-25T08:16:22;9.90;99.90
19941;DHT22;10132;50.864;5.176;2023-04-25T08:18:24;9.80;99.90
19941;DHT22;10132;50.864;5.176;2023-04-25T08:20:27;9.70;99.90
19941;DHT22;10132;50.864;5.176;2023-04-25T08:22:30;9.90;99.90
19941;DHT22;10132;50.864;5.176;2023-04-25T08:24:32;10.10;99.90
19941;DHT22;10132;50.864;5.176;2023-04-25T08:26:34;10.00;99.90
19941;DHT22;10132;50.864;5.176;2023-04-25T08:28:39;10.00;99.90
19941;DHT22;10132;50.864;5.176;2023-04-25T08:30:41;10.10;99.90
19941;DHT22;10132;50.864;5.176;2023-04-25T08:32:43;10.00;99.90
19941;DHT22;10132;50.864;5.176;2023-04-25T08:34:46;9.90;99.90
19941;DHT22;10132;50.864;5.176;2023-04-25T08:36:48;9.90;99.90
19941;DHT22;10132;50.864;5.176;2023-04-25T08:38:50;9.80;99.90
19941;DHT22;10132;50.864;5.176;2023-04-25T08:40:52;9.80;99.90
19941;DHT22;10132;50.864;5.176;2023-04-25T08:42:57;9.50;99.90
19941;DHT22;10132;50.864;5.176;2023-04-25T08:45:01;9.30;99.90
19941;DHT22;10132;50.864;5.176;2023-04-25T08:47:04;9.10;99.90
19941;DHT22;10132;50.864;5.176;2023-04-25T08:49:08;8.90;99.90
19941;DHT22;10132;50.864;5.176;2023-04-25T08:51:17;8.80;99.90
19941;DHT22;10132;50.864;5.176;2023-04-25T08:53:26;8.80;99.90
19941;DHT22;10132;50.864;5.176;2023-04-25T08:55:28;8.70;99.90
19941;DHT22;10132;50.864;5.176;2023-04-25T08:57:31;8.60;99.90
19941;DHT22;10132;50.864;5.176;2023-04-25T08:59:36;8.50;99.90
19941;DHT22;10132;50.864;5.176;2023-04-25T09:01:45;8.50;99.90
19941;DHT22;10132;50.864;5.176;2023-04-25T09:03:47;8.40;99.90
19941;DHT22;10132;50.864;5.176;2023-04-25T09:05:51;8.30;99.90
19941;DHT22;10132;50.864;5.176;2023-04-25T09:07:53;8.30;99.90
19941;DHT22;10132;50.864;5.176;2023-04-25T09:09:56;8.40;99.90
19941;DHT22;10132;50.864;5.176;2023-04-25T09:12:00;8.50;99.90
19941;DHT22;10132;50.864;5.176;2023-04-25T09:14:14;8.80;99.90
19941;DHT22;10132;50.864;5.176;2023-04-25T09:16:16;8.90;99.90
19941;DHT22;10132;50.864;5.176;2023-04-25T09:18:24;9.10;99.90
19941;DHT22;10132;50.864;5.176;2023-04-25T09:20:28;9.20;99.90
19941;DHT22;10132;50.864;5.176;2023-04-25T09:22:30;9.20;99.90
19941;DHT22;10132;50.864;5.176;2023-04-25T09:24:38;9.30;99.90
19941;DHT22;10132;50.864;5.176;2023-04-25T09:26:40;9.20;99.90
19941;DHT22;10132;50.864;5.176;2023-04-25T09:28:42;9.40;99.90
19941;DHT22;10132;50.864;5.176;2023-04-25T09:30:46;9.40;99.90
19941;DHT22;10132;50.864;5.176;2023-04-25T09:32:49;9.30;99.90
19941;DHT22;10132;50.864;5.176;2023-04-25T09:34:54;9.40;99.90
19941;DHT22;10132;50.864;5.176;2023-04-25T09:37:01;9.60;99.90
19941;DHT22;10132;50.864;5.176;2023-04-25T09:39:12;9.90;99.90
19941;DHT22;10132;50.864;5.176;2023-04-25T09:41:22;10.20;99.90
19941;DHT22;10132;50.864;5.176;2023-04-25T09:43:25;10.40;99.90
19941;DHT22;10132;50.864;5.176;2023-04-25T09:45:29;10.70;99.90
19941;DHT22;10132;50.864;5.176;2023-04-25T09:47:32;10.80;99.90
19941;DHT22;10132;50.864;5.176;2023-04-25T09:49:40;11.00;99.90
19941;DHT22;10132;50.864;5.176;2023-04-25T09:51:57;11.60;99.90
19941;DHT22;10132;50.864;5.176;2023-04-25T09:53:59;12.30;99.90
19941;DHT22;10132;50.864;5.176;2023-04-25T09:56:05;12.20;99.90
19941;DHT22;10132;50.864;5.176;2023-04-25T09:58:09;12.10;99.90
19941;DHT22;10132;50.864;5.176;2023-04-25T10:00:13;11.90;99.90
19941;DHT22;10132;50.864;5.176;2023-04-25T10:02:17;11.60;99.90
19941;DHT22;10132;50.864;5.176;2023-04-25T10:04:25;11.30;99.90
19941;DHT22;10132;50.864;5.176;2023-04-25T10:06:31;11.10;99.90
19941;DHT22;10132;50.864;5.176;2023-04-25T10:08:37;11.00;99.90
19941;DHT22;10132;50.864;5.176;2023-04-25T10:10:40;11.10;99.90
19941;DHT22;10132;50.864;5.176;2023-04-25T10:12:43;11.20;99.90
19941;DHT22;10132;50.864;5.176;2023-04-25T10:14:46;11.20;99.90
19941;DHT22;10132;50.864;5.176;2023-04-25T10:16:49;11.00;99.90
19941;DHT22;10132;50.864;5.176;2023-04-25T10:18:54;10.80;99.90
19941;DHT22;10132;50.864;5.176;2023-04-25T10:20:59;10.70;99.90
19941;DHT22;10132;50.864;5.176;2023-04-25T10:23:09;10.60;99.90
19941;DHT22;10132;50.864;5.176;2023-04-25T10:25:17;10.50;99.90
19941;DHT22;10132;50.864;5.176;2023-04-25T10:27:20;10.40;99.90
19941;DHT22;10132;50.864;5.176;2023-04-25T10:29:22;10.40;99.90
19941;DHT22;10132;50.864;5.176;2023-04-25T10:31:25;10.50;99.90
19941;DHT22;10132;50.864;5.176;2023-04-25T10:33:35;10.70;99.90
19941;DHT22;10132;50.864;5.176;2023-04-25T10:35:38;10.70;99.90
19941;DHT22;10132;50.864;5.176;2023-04-25T10:37:59;10.50;99.90
19941;DHT22;10132;50.864;5.176;2023-04-25T10:40:08;10.50;99.90
19941;DHT22;10132;50.864;5.176;2023-04-25T10:42:13;10.30;99.90
19941;DHT22;10132;50.864;5.176;2023-04-25T10:44:15;10.00;99.90
19941;DHT22;10132;50.864;5.176;2023-04-25T10:46:18;9.90;99.90
19941;DHT22;10132;50.864;5.176;2023-04-25T10:48:25;10.00;99.90
19941;DHT22;10132;50.864;5.176;2023-04-25T10:50:37;10.20;99.90
19941;DHT22;10132;50.864;5.176;2023-04-25T10:52:40;10.30;99.90
19941;DHT22;10132;50.864;5.176;2023-04-25T10:54:46;10.60;99.90
19941;DHT22;10132;50.864;5.176;2023-04-25T10:56:48;11.20;99.90
19941;DHT22;10132;50.864;5.176;2023-04-25T10:59:04;11.50;99.90
19941;DHT22;10132;50.864;5.176;2023-04-25T11:01:06;11.50;99.90
19941;DHT22;10132;50.864;5.176;2023-04-25T11:03:08;11.50;99.90
19941;DHT22;10132;50.864;5.176;2023-04-25T11:05:12;11.80;99.90
19941;DHT22;10132;50.864;5.176;2023-04-25T11:07:23;11.90;99.90
19941;DHT22;10132;50.864;5.176;2023-04-25T11:09:27;12.30;99.90
19941;DHT22;10132;50.864;5.176;2023-04-25T11:11:30;12.40;99.90
19941;DHT22;10132;50.864;5.176;2023-04-25T11:13:32;12.10;99.90
19941;DHT22;10132;50.864;5.176;2023-04-25T11:15:37;11.70;99.90
19941;DHT22;10132;50.864;5.176;2023-04-25T11:17:40;11.20;99.90
19941;DHT22;10132;50.864;5.176;2023-04-25T11:19:43;11.10;99.90
19941;DHT22;10132;50.864;5.176;2023-04-25T11:21:50;11.20;99.90
19941;DHT22;10132;50.864;5.176;2023-04-25T11:23:55;11.80;99.90
19941;DHT22;10132;50.864;5.176;2023-04-25T11:25:58;12.00;99.90
19941;DHT22;10132;50.864;5.176;2023-04-25T11:28:01;12.30;99.90
19941;DHT22;10132;50.864;5.176;2023-04-25T11:30:14;12.70;99.90
19941;DHT22;10132;50.864;5.176;2023-04-25T11:32:19;12.40;99.90
19941;DHT22;10132;50.864;5.176;2023-04-25T11:34:21;12.40;99.90
19941;DHT22;10132;50.864;5.176;2023-04-25T11:36:24;12.90;99.90
19941;DHT22;10132;50.864;5.176;2023-04-25T11:38:26;13.40;99.90
19941;DHT22;10132;50.864;5.176;2023-04-25T11:40:30;13.20;99.90
19941;DHT22;10132;50.864;5.176;2023-04-25T11:42:32;13.10;99.90
19941;DHT22;10132;50.864;5.176;2023-04-25T11:44:35;13.50;99.90
19941;DHT22;10132;50.864;5.176;2023-04-25T11:46:39;13.90;99.90
19941;DHT22;10132;50.864;5.176;2023-04-25T11:48:43;14.30;99.90
19941;DHT22;10132;50.864;5.176;2023-04-25T11:50:46;14.60;99.90
19941;DHT22;10132;50.864;5.176;2023-04-25T11:52:50;14.60;99.90
19941;DHT22;10132;50.864;5.176;2023-04-25T11:54:52;14.10;99.90
19941;DHT22;10132;50.864;5.176;2023-04-25T11:56:56;13.30;99.90
19941;DHT22;10132;50.864;5.176;2023-04-25T11:58:59;13.20;99.90
19941;DHT22;10132;50.864;5.176;2023-04-25T12:01:01;13.30;99.90
19941;DHT22;10132;50.864;5.176;2023-04-25T12:03:03;13.30;99.90
19941;DHT22;10132;50.864;5.176;2023-04-25T12:05:09;13.60;99.90
19941;DHT22;10132;50.864;5.176;2023-04-25T12:07:12;13.60;99.90
19941;DHT22;10132;50.864;5.176;2023-04-25T12:09:16;13.40;99.90
19941;DHT22;10132;50.864;5.176;2023-04-25T12:11:21;13.90;99.90
19941;DHT22;10132;50.864;5.176;2023-04-25T12:13:25;13.70;99.90
19941;DHT22;10132;50.864;5.176;2023-04-25T12:15:28;13.30;99.90
19941;DHT22;10132;50.864;5.176;2023-04-25T12:17:30;13.00;99.90
19941;DHT22;10132;50.864;5.176;2023-04-25T12:19:33;12.80;99.90
19941;DHT22;10132;50.864;5.176;2023-04-25T12:21:37;12.40;99.90
19941;DHT22;10132;50.864;5.176;2023-04-25T12:23:39;12.10;99.90
19941;DHT22;10132;50.864;5.176;2023-04-25T12:25:43;11.80;99.90
19941;DHT22;10132;50.864;5.176;2023-04-25T12:27:46;11.50;99.90
19941;DHT22;10132;50.864;5.176;2023-04-25T12:29:51;11.30;99.90
19941;DHT22;10132;50.864;5.176;2023-04-25T12:31:54;10.70;99.90
19941;DHT22;10132;50.864;5.176;2023-04-25T12:33:58;10.30;99.90
19941;DHT22;10132;50.864;5.176;2023-04-25T12:36:01;10.10;99.90
19941;DHT22;10132;50.864;5.176;2023-04-25T12:38:10;10.00;99.90
19941;DHT22;10132;50.864;5.176;2023-04-25T12:40:15;10.00;99.90
19941;DHT22;10132;50.864;5.176;2023-04-25T12:42:19;10.00;99.90
19941;DHT22;10132;50.864;5.176;2023-04-25T12:44:22;10.10;99.90
19941;DHT22;10132;50.864;5.176;2023-04-25T12:46:24;10.20;99.90
19941;DHT22;10132;50.864;5.176;2023-04-25T12:48:26;10.30;99.90
19941;DHT22;10132;50.864;5.176;2023-04-25T12:50:28;10.40;99.90
19941;DHT22;10132;50.864;5.176;2023-04-25T12:52:31;10.50;99.90
19941;DHT22;10132;50.864;5.176;2023-04-25T12:54:34;10.70;99.90
19941;DHT22;10132;50.864;5.176;2023-04-25T12:56:36;10.90;99.90
19941;DHT22;10132;50.864;5.176;2023-04-25T12:58:39;11.00;99.90
19941;DHT22;10132;50.864;5.176;2023-04-25T13:00:41;11.00;99.90
19941;DHT22;10132;50.864;5.176;2023-04-25T13:02:44;11.20;99.90
19941;DHT22;10132;50.864;5.176;2023-04-25T13:04:46;11.30;99.90
19941;DHT22;10132;50.864;5.176;2023-04-25T13:06:49;11.50;99.90
19941;DHT22;10132;50.864;5.176;2023-04-25T13:08:51;11.90;99.90
19941;DHT22;10132;50.864;5.176;2023-04-25T13:10:54;12.20;99.90
19941;DHT22;10132;50.864;5.176;2023-04-25T13:12:56;12.00;99.90
19941;DHT22;10132;50.864;5.176;2023-04-25T13:14:59;11.80;99.90
19941;DHT22;10132;50.864;5.176;2023-04-25T13:17:00;11.60;99.90